Time;durP1;ratioP1;P1;durP2;ratioP2;P2;SDS_P1;SDS_P2;PMS_P1;PMS_P2;Temp;Humidity;BMP_temperature;BMP_pressure;BME280_temperature;BME280_humidity;BME280_pressure;Samples;Min_cycle;Max_cycle;Signal;HPM_P1;HPM_P2
2022/08/06 00:00:06;;;;;;;5.77;2.77;;;;;;;12.87;100.00;101697.59;691616;28;1495;-80
2022/08/06 00:00:32;;;;;;;6.13;3.00;;;;;;;12.87;100.00;101702.84;688568;28;1502;-80
2022/08/06 00:00:52;;;;;;;6.32;3.28;;;;;;;12.87;100.00;101699.34;690691;28;1613;-80
2022/08/06 00:01:13;;;;;;;5.90;3.10;;;;;;;12.91;100.00;101695.88;688761;28;4456;-80
2022/08/06 00:01:33;;;;;;;5.13;2.70;;;;;;;12.91;100.00;101696.72;689365;28;1755;-80
2022/08/06 00:01:54;;;;;;;5.07;2.70;;;;;;;12.89;100.00;101697.59;691188;28;1487;-80
2022/08/06 00:02:15;;;;;;;5.88;2.70;;;;;;;12.87;100.00;101696.72;693548;28;1752;-80
2022/08/06 00:02:35;;;;;;;5.63;2.67;;;;;;;12.85;100.00;101694.09;694432;28;1580;-80
2022/08/06 00:02:56;;;;;;;5.43;2.90;;;;;;;12.84;100.00;101694.09;691867;28;1379;-80
2022/08/06 00:03:16;;;;;;;5.80;2.55;;;;;;;12.82;100.00;101698.47;691411;28;1384;-80
2022/08/06 00:03:36;;;;;;;6.03;2.60;;;;;;;12.80;100.00;101692.34;693469;28;1281;-80
2022/08/06 00:04:00;;;;;;;4.97;2.70;;;;;;;12.75;100.00;101690.59;691511;28;4448;-80
2022/08/06 00:04:21;;;;;;;4.95;2.80;;;;;;;12.74;100.00;101698.47;693318;28;1540;-80
2022/08/06 00:04:42;;;;;;;4.30;2.60;;;;;;;12.72;100.00;101694.94;688621;28;1730;-80
2022/08/06 00:05:04;;;;;;;5.83;2.77;;;;;;;12.72;100.00;101692.31;687656;28;1615;-80
2022/08/06 00:05:26;;;;;;;5.00;2.65;;;;;;;12.69;100.00;101693.19;687826;28;1456;-79
2022/08/06 00:05:47;;;;;;;5.85;3.20;;;;;;;12.68;100.00;101698.41;687808;28;1569;-80
2022/08/06 00:06:07;;;;;;;6.55;2.90;;;;;;;12.66;100.00;101705.44;688773;28;1725;-80
2022/08/06 00:06:28;;;;;;;5.45;2.70;;;;;;;12.64;100.00;101700.19;690325;28;1281;-80
2022/08/06 00:06:48;;;;;;;5.80;2.70;;;;;;;12.63;100.00;101700.16;693566;28;1527;-80
2022/08/06 00:07:08;;;;;;;6.50;2.65;;;;;;;12.62;100.00;101698.41;693856;28;4294;-79
2022/08/06 00:07:29;;;;;;;4.87;2.60;;;;;;;12.59;100.00;101704.53;691240;28;1532;-80
2022/08/06 00:07:49;;;;;;;5.72;2.70;;;;;;;12.60;100.00;101699.28;688044;28;1592;-80
2022/08/06 00:08:10;;;;;;;5.60;2.40;;;;;;;12.66;100.00;101706.28;689146;28;1212;-80
2022/08/06 00:08:30;;;;;;;6.18;2.70;;;;;;;12.70;100.00;101696.69;686203;28;1891;-80
2022/08/06 00:08:51;;;;;;;6.30;2.90;;;;;;;12.72;100.00;101697.56;685820;28;1260;-80
2022/08/06 00:09:12;;;;;;;5.97;2.80;;;;;;;12.74;100.00;101695.84;683175;28;1421;-80
2022/08/06 00:09:32;;;;;;;5.55;2.50;;;;;;;12.73;100.00;101697.56;684149;28;2226;-80
2022/08/06 00:09:53;;;;;;;5.80;2.67;;;;;;;12.71;100.00;101704.56;683555;28;1255;-79
2022/08/06 00:10:23;;;;;;;5.90;2.80;;;;;;;12.71;100.00;101698.41;684900;28;4311;-79
2022/08/06 00:10:44;;;;;;;6.05;2.45;;;;;;;12.69;100.00;101692.31;687223;28;1803;-80
2022/08/06 00:11:04;;;;;;;6.13;2.67;;;;;;;12.72;100.00;101698.47;691335;28;1640;-80
2022/08/06 00:11:25;;;;;;;5.03;2.58;;;;;;;12.73;100.00;101699.31;690974;28;1251;-80
2022/08/06 00:11:46;;;;;;;5.23;2.70;;;;;;;12.74;100.00;101703.72;690940;28;1651;-80
2022/08/06 00:12:07;;;;;;;5.35;2.60;;;;;;;12.69;100.00;101692.31;687289;28;1378;-80
2022/08/06 00:12:30;;;;;;;5.45;2.70;;;;;;;12.65;100.00;101695.78;688938;28;1576;-79
2022/08/06 00:12:50;;;;;;;5.00;2.50;;;;;;;12.67;100.00;101697.56;688376;28;1434;-80
2022/08/06 00:13:11;;;;;;;6.65;2.85;;;;;;;12.65;100.00;101706.28;691516;28;4323;-80
2022/08/06 00:13:31;;;;;;;7.33;3.07;;;;;;;12.64;100.00;101694.03;693325;28;1392;-79
2022/08/06 00:13:51;;;;;;;6.27;2.93;;;;;;;12.67;100.00;101710.69;692345;28;1312;-80
2022/08/06 00:14:12;;;;;;;5.00;2.72;;;;;;;12.66;100.00;101701.03;691032;28;1055;-80
2022/08/06 00:14:32;;;;;;;4.83;2.70;;;;;;;12.67;100.00;101704.53;691501;28;1393;-80
2022/08/06 00:14:53;;;;;;;6.00;2.70;;;;;;;12.69;100.00;101694.94;691467;28;1237;-80
2022/08/06 00:15:13;;;;;;;6.43;2.70;;;;;;;12.69;100.00;101708.06;688761;28;1422;-80
2022/08/06 00:15:34;;;;;;;5.83;2.63;;;;;;;12.71;100.00;101699.31;691359;28;1963;-80
2022/08/06 00:15:54;;;;;;;5.95;2.58;;;;;;;12.68;100.00;101699.31;687800;28;4356;-80
2022/08/06 00:16:15;;;;;;;5.47;2.73;;;;;;;12.66;100.00;101697.56;685822;28;1157;-80
2022/08/06 00:16:36;;;;;;;5.90;2.70;;;;;;;12.67;100.00;101702.81;684026;28;1176;-80
2022/08/06 00:16:57;;;;;;;6.00;2.60;;;;;;;12.73;100.00;101699.31;686016;28;1322;-80
2022/08/06 00:17:19;;;;;;;5.05;2.60;;;;;;;12.76;100.00;101699.31;686100;28;1581;-80
2022/08/06 00:17:41;;;;;;;4.75;2.70;;;;;;;12.73;100.00;101705.44;688037;28;1695;-80
2022/08/06 00:18:02;;;;;;;6.95;2.90;;;;;;;12.71;100.00;101696.69;688159;28;1816;-80
2022/08/06 00:18:25;;;;;;;6.25;3.00;;;;;;;12.74;100.00;101703.72;685027;28;2076;-79
2022/08/06 00:18:45;;;;;;;5.22;2.78;;;;;;;12.77;100.00;101707.19;684257;28;1436;-81
2022/08/06 00:19:07;;;;;;;5.63;2.73;;;;;;;12.86;100.00;101715.97;684494;28;4299;-80
2022/08/06 00:19:27;;;;;;;5.97;2.53;;;;;;;12.88;100.00;101703.75;688094;28;2109;-80
2022/08/06 00:19:48;;;;;;;5.45;2.50;;;;;;;12.86;100.00;101695.88;689502;28;1806;-80
2022/08/06 00:20:09;;;;;;;6.47;2.50;;;;;;;12.90;100.00;101702.88;691684;28;1567;-80
2022/08/06 00:20:30;;;;;;;5.13;2.60;;;;;;;12.89;100.00;101700.22;690714;28;1535;-80
2022/08/06 00:20:50;;;;;;;5.50;2.90;;;;;;;12.92;100.00;101703.75;689155;28;1587;-80
2022/08/06 00:21:11;;;;;;;6.03;2.80;;;;;;;12.88;100.00;101699.34;688867;28;1053;-80
2022/08/06 00:21:31;;;;;;;5.47;2.57;;;;;;;12.86;100.00;101702.84;689038;28;1601;-80
2022/08/06 00:21:53;;;;;;;5.35;2.60;;;;;;;12.85;100.00;101699.34;688133;28;1604;-80
2022/08/06 00:22:13;;;;;;;6.25;2.50;;;;;;;12.88;100.00;101696.72;687525;28;4284;-80
2022/08/06 00:22:34;;;;;;;4.90;2.60;;;;;;;12.91;100.00;101704.59;687165;28;1604;-80
2022/08/06 00:22:54;;;;;;;5.33;2.43;;;;;;;12.92;100.00;101701.13;690000;28;2028;-80
2022/08/06 00:23:15;;;;;;;5.68;2.53;;;;;;;12.94;100.00;101704.63;689306;28;1232;-79
2022/08/06 00:23:35;;;;;;;5.00;2.40;;;;;;;12.95;100.00;101697.63;689183;28;1457;-80
2022/08/06 00:23:55;;;;;;;5.57;2.58;;;;;;;12.87;100.00;101705.47;690805;28;2116;-80
2022/08/06 00:24:16;;;;;;;6.37;2.80;;;;;;;12.88;100.00;101704.59;689081;28;1726;-80
2022/08/06 00:24:36;;;;;;;5.63;2.65;;;;;;;12.87;100.00;101708.09;691748;28;1277;-80
2022/08/06 00:24:57;;;;;;;6.17;2.90;;;;;;;12.80;100.00;101698.47;690676;28;4475;-80
2022/08/06 00:25:17;;;;;;;5.55;2.53;;;;;;;12.72;100.00;101697.56;692560;28;1855;-80
2022/08/06 00:25:46;;;;;;;6.50;2.60;;;;;;;12.68;100.00;101703.66;692771;28;1847;-80
2022/08/06 00:26:11;;;;;;;6.70;2.63;;;;;;;12.72;100.00;101702.81;696544;28;1028;-81
2022/08/06 00:26:34;;;;;;;6.95;2.60;;;;;;;12.73;100.00;101700.19;695462;28;1286;-81
2022/08/06 00:26:55;;;;;;;5.70;2.97;;;;;;;12.72;100.00;101708.06;694941;28;1180;-81
2022/08/06 00:27:15;;;;;;;5.10;2.58;;;;;;;12.72;100.00;101705.44;694560;28;1316;-81
2022/08/06 00:27:37;;;;;;;5.80;2.70;;;;;;;12.71;100.00;101690.56;696617;28;1004;-82
2022/08/06 00:27:57;;;;;;;7.28;2.90;;;;;;;12.70;100.00;101699.31;693915;28;5182;-81
2022/08/06 00:28:18;;;;;;;5.70;2.80;;;;;;;12.70;100.00;101704.56;691928;28;1580;-81
2022/08/06 00:28:38;;;;;;;5.78;2.97;;;;;;;12.67;100.00;101700.19;691729;28;1939;-82
2022/08/06 00:28:58;;;;;;;5.87;2.73;;;;;;;12.65;100.00;101706.28;692261;28;1649;-81
2022/08/06 00:29:19;;;;;;;4.40;2.50;;;;;;;12.68;100.00;101712.44;692526;28;1203;-82
2022/08/06 00:29:39;;;;;;;4.90;2.90;;;;;;;12.68;100.00;101701.03;692918;28;1542;-81
2022/08/06 00:29:59;;;;;;;5.90;3.13;;;;;;;12.62;100.00;101698.41;694166;28;1219;-81
2022/08/06 00:30:20;;;;;;;5.87;2.90;;;;;;;12.54;100.00;101704.47;689668;28;1338;-81
2022/08/06 00:30:41;;;;;;;5.05;2.65;;;;;;;12.54;100.00;101701.00;689736;28;1140;-81
2022/08/06 00:31:04;;;;;;;6.43;2.95;;;;;;;12.57;100.00;101699.28;690498;28;4370;-81
2022/08/06 00:31:24;;;;;;;5.97;3.15;;;;;;;12.60;100.00;101704.53;691078;28;1259;-81
2022/08/06 00:31:44;;;;;;;5.80;2.88;;;;;;;12.57;100.00;101698.38;692878;28;1674;-81
2022/08/06 00:32:05;;;;;;;4.70;2.90;;;;;;;12.52;100.00;101708.00;692079;28;1120;-81
2022/08/06 00:32:26;;;;;;;5.45;2.70;;;;;;;12.51;100.00;101699.22;691663;28;1528;-81
2022/08/06 00:32:47;;;;;;;7.00;2.83;;;;;;;12.44;100.00;101694.84;692875;28;1268;-81
2022/08/06 00:33:07;;;;;;;7.45;3.05;;;;;;;12.49;100.00;101705.34;694824;28;1099;-81
2022/08/06 00:33:28;;;;;;;7.53;3.27;;;;;;;12.50;100.00;101697.50;690033;28;1593;-81
2022/08/06 00:33:48;;;;;;;7.22;3.20;;;;;;;12.50;100.00;101702.75;692746;28;1319;-81
2022/08/06 00:34:09;;;;;;;5.87;3.10;;;;;;;12.50;100.00;101708.00;690147;28;4357;-81
2022/08/06 00:34:29;;;;;;;6.03;3.03;;;;;;;12.48;100.00;101706.25;691785;28;1210;-82
2022/08/06 00:34:49;;;;;;;6.63;3.20;;;;;;;12.41;100.00;101697.47;692674;28;1333;-81
2022/08/06 00:35:10;;;;;;;7.03;2.80;;;;;;;12.38;100.00;101711.44;693088;28;1694;-82
2022/08/06 00:35:30;;;;;;;7.28;2.70;;;;;;;12.32;100.00;101703.53;689667;28;1393;-81
2022/08/06 00:35:51;;;;;;;6.10;2.73;;;;;;;12.30;100.00;101699.16;690870;28;1697;-81
2022/08/06 00:36:11;;;;;;;6.03;2.70;;;;;;;12.27;100.00;101703.50;693299;28;1532;-81
2022/08/06 00:36:32;;;;;;;6.27;2.90;;;;;;;12.34;100.00;101712.28;688770;28;1229;-81
2022/08/06 00:36:53;;;;;;;5.90;3.13;;;;;;;12.29;100.00;101697.41;688122;28;1457;-81
2022/08/06 00:37:17;;;;;;;6.27;3.17;;;;;;;12.25;100.00;101702.63;689999;28;4308;-81
2022/08/06 00:37:40;;;;;;;5.35;2.92;;;;;;;12.23;100.00;101709.59;688906;28;1001;-81
2022/08/06 00:38:00;;;;;;;6.45;2.90;;;;;;;12.20;100.00;101703.50;686947;28;1354;-81
2022/08/06 00:38:21;;;;;;;6.32;3.10;;;;;;;12.19;100.00;101706.97;688972;28;1184;-81
2022/08/06 00:38:42;;;;;;;5.43;2.90;;;;;;;12.20;100.00;101704.34;693848;28;5331;-81
2022/08/06 00:39:05;;;;;;;5.65;2.95;;;;;;;12.21;100.00;101705.22;693226;28;1436;-81
2022/08/06 00:39:25;;;;;;;6.32;3.00;;;;;;;12.23;100.00;101714.84;689558;28;1128;-80
2022/08/06 00:39:46;;;;;;;6.27;2.93;;;;;;;12.17;100.00;101704.34;687821;28;1543;-81
2022/08/06 00:40:07;;;;;;;7.20;2.90;;;;;;;12.17;100.00;101706.06;688348;28;4301;-81
2022/08/06 00:40:38;;;;;;;6.85;2.78;;;;;;;12.17;100.00;101709.59;688427;28;1276;-81
2022/08/06 00:40:59;;;;;;;5.55;2.75;;;;;;;12.18;100.00;101706.06;689113;28;1339;-81
2022/08/06 00:41:25;;;;;;;6.23;2.67;;;;;;;12.23;100.00;101706.97;687035;28;1236;-81
2022/08/06 00:41:47;;;;;;;7.40;2.97;;;;;;;12.21;100.00;101711.34;684593;28;1591;-81
2022/08/06 00:42:09;;;;;;;6.07;2.75;;;;;;;12.25;100.00;101709.59;686348;28;1663;-80
2022/08/06 00:42:33;;;;;;;5.63;2.70;;;;;;;12.28;100.00;101709.66;691892;28;1527;-81
2022/08/06 00:43:00;;;;;;;8.75;3.15;;;;;;;12.25;100.00;101707.00;687586;28;4337;-80
2022/08/06 00:43:22;;;;;;;8.10;3.25;;;;;;;12.17;100.00;101701.72;692591;28;1399;-80
2022/08/06 00:43:43;;;;;;;5.80;2.78;;;;;;;12.18;100.00;101707.84;691407;28;1272;-81
2022/08/06 00:44:03;;;;;;;6.38;2.67;;;;;;;12.15;100.00;101708.69;694997;28;1099;-80
2022/08/06 00:44:25;;;;;;;5.65;2.83;;;;;;;12.15;100.00;101711.31;693495;28;1172;-81
2022/08/06 00:44:54;;;;;;;5.65;2.88;;;;;;;12.12;100.00;101713.06;693010;28;1253;-80
2022/08/06 00:45:14;;;;;;;6.43;2.78;;;;;;;12.07;100.00;101713.91;689274;28;1331;-80
2022/08/06 00:45:35;;;;;;;6.00;2.70;;;;;;;12.14;100.00;101704.31;683825;28;1540;-81
2022/08/06 00:45:56;;;;;;;5.07;2.90;;;;;;;12.14;100.00;101700.81;686350;28;4310;-80
2022/08/06 00:46:16;;;;;;;6.07;3.03;;;;;;;12.10;100.00;101713.03;691668;28;1337;-81
2022/08/06 00:46:37;;;;;;;6.55;2.75;;;;;;;12.11;100.00;101708.66;693681;28;1559;-81
2022/08/06 00:46:58;;;;;;;5.50;2.80;;;;;;;12.14;100.00;101709.53;692680;28;1195;-80
2022/08/06 00:47:21;;;;;;;5.35;2.85;;;;;;;12.11;100.00;101706.06;689458;28;1514;-80
2022/08/06 00:47:51;;;;;;;5.05;2.65;;;;;;;12.09;100.00;101708.66;689700;28;1275;-80
2022/08/06 00:48:13;;;;;;;5.20;2.80;;;;;;;12.12;100.00;101713.06;683456;28;1453;-79
2022/08/06 00:48:34;;;;;;;6.55;3.00;;;;;;;12.13;100.00;101710.44;689474;28;1900;-79
2022/08/06 00:48:54;;;;;;;5.67;2.90;;;;;;;12.08;100.00;101710.41;691588;28;4281;-79
2022/08/06 00:49:15;;;;;;;5.90;2.73;;;;;;;12.03;100.00;101706.88;689254;28;1320;-79
2022/08/06 00:49:35;;;;;;;6.97;2.90;;;;;;;12.04;100.00;101708.63;690113;28;1637;-79
2022/08/06 00:49:55;;;;;;;5.00;2.80;;;;;;;12.03;100.00;101704.28;689902;28;1395;-80
2022/08/06 00:50:16;;;;;;;4.23;2.70;;;;;;;12.02;100.00;101715.63;691152;28;1234;-79
2022/08/06 00:50:39;;;;;;;4.68;2.67;;;;;;;12.00;100.00;101709.47;691184;28;1175;-79
2022/08/06 00:50:59;;;;;;;5.28;2.83;;;;;;;11.95;100.00;101713.81;690131;28;1442;-80
2022/08/06 00:51:22;;;;;;;4.50;2.80;;;;;;;11.96;100.00;101715.56;693229;28;1255;-80
2022/08/06 00:51:42;;;;;;;5.43;2.88;;;;;;;11.95;100.00;101712.94;686340;28;1448;-80
2022/08/06 00:52:03;;;;;;;5.97;2.90;;;;;;;12.00;100.00;101703.38;688805;28;4295;-80
2022/08/06 00:52:23;;;;;;;5.97;3.10;;;;;;;12.00;100.00;101703.38;692872;28;1423;-80
2022/08/06 00:52:45;;;;;;;6.22;2.63;;;;;;;11.99;100.00;101717.31;689698;28;971;-80
2022/08/06 00:53:06;;;;;;;6.63;2.60;;;;;;;11.94;100.00;101717.31;693372;28;1419;-80
2022/08/06 00:53:27;;;;;;;6.73;2.70;;;;;;;11.91;100.00;101712.03;692192;28;1266;-80
2022/08/06 00:53:47;;;;;;;5.80;2.80;;;;;;;11.85;100.00;101710.25;689311;28;1268;-81
2022/08/06 00:54:07;;;;;;;5.55;2.75;;;;;;;11.85;100.00;101712.88;688369;28;1253;-80
2022/08/06 00:54:28;;;;;;;5.23;2.77;;;;;;;11.85;100.00;101707.63;685400;28;1135;-80
2022/08/06 00:54:48;;;;;;;4.70;2.45;;;;;;;11.84;100.00;101710.22;686232;28;1176;-80
2022/08/06 00:55:09;;;;;;;6.40;2.70;;;;;;;11.81;100.00;101703.22;687457;28;4279;-80
2022/08/06 00:55:30;;;;;;;6.40;2.70;;;;;;;11.86;100.00;101708.47;688741;28;955;-80
2022/08/06 00:55:50;;;;;;;4.60;2.58;;;;;;;11.90;100.00;101712.88;685981;28;1605;-81
2022/08/06 00:56:11;;;;;;;4.65;2.53;;;;;;;11.90;100.00;101712.88;685612;28;1320;-81
2022/08/06 00:56:31;;;;;;;5.00;2.70;;;;;;;11.90;100.00;101705.03;685342;28;1598;-80
2022/08/06 00:56:51;;;;;;;5.63;2.85;;;;;;;11.83;100.00;101708.47;687873;28;1491;-80
2022/08/06 00:57:12;;;;;;;4.33;2.57;;;;;;;11.83;100.00;101711.09;688083;28;1532;-81
2022/08/06 00:57:32;;;;;;;4.72;2.42;;;;;;;11.85;100.00;101717.19;692555;28;1698;-81
2022/08/06 00:57:53;;;;;;;5.40;2.37;;;;;;;11.91;100.00;101718.13;691552;28;1152;-80
2022/08/06 00:58:13;;;;;;;4.53;2.35;;;;;;;11.95;100.00;101712.94;683666;28;4284;-81
2022/08/06 00:58:37;;;;;;;4.83;2.40;;;;;;;11.97;100.00;101719.06;686197;28;1547;-81
2022/08/06 00:58:57;;;;;;;4.93;2.35;;;;;;;11.99;100.00;101727.81;687911;28;1750;-81
2022/08/06 00:59:18;;;;;;;4.40;2.30;;;;;;;11.99;100.00;101714.69;688917;28;1201;-80
2022/08/06 00:59:39;;;;;;;5.45;2.50;;;;;;;11.97;100.00;101711.22;689522;28;1455;-81
2022/08/06 00:59:59;;;;;;;4.20;2.38;;;;;;;11.93;100.00;101716.41;685456;28;1228;-81
2022/08/06 01:00:19;;;;;;;5.03;2.40;;;;;;;11.84;100.00;101715.47;682832;28;1622;-82
2022/08/06 01:00:40;;;;;;;4.32;2.50;;;;;;;11.86;100.00;101722.44;683118;29;900;-81
2022/08/06 01:01:00;;;;;;;4.57;2.37;;;;;;;11.88;100.00;101718.13;683728;28;4357;-80
2022/08/06 01:01:21;;;;;;;5.53;2.33;;;;;;;11.87;100.00;101716.34;689560;28;1341;-80
2022/08/06 01:01:41;;;;;;;5.87;2.40;;;;;;;11.86;100.00;101725.06;688987;28;1616;-82
2022/08/06 01:02:02;;;;;;;5.50;2.45;;;;;;;11.86;100.00;101717.22;685787;28;1094;-80
2022/08/06 01:02:22;;;;;;;4.47;2.30;;;;;;;11.91;100.00;101720.75;686254;28;1371;-81
2022/08/06 01:02:43;;;;;;;4.10;2.37;;;;;;;11.87;100.00;101718.97;687429;28;938;-81
2022/08/06 01:03:03;;;;;;;4.03;2.20;;;;;;;11.80;100.00;101719.81;689367;28;1719;-80
2022/08/06 01:03:24;;;;;;;3.72;2.20;;;;;;;11.79;100.00;101723.28;693463;28;1577;-81
2022/08/06 01:03:47;;;;;;;4.10;2.40;;;;;;;11.75;100.00;101721.50;691562;28;1171;-80
2022/08/06 01:04:07;;;;;;;4.15;2.58;;;;;;;11.71;100.00;101722.34;688128;28;4275;-81
2022/08/06 01:04:34;;;;;;;6.13;2.70;;;;;;;11.68;100.00;101719.72;686741;28;1708;-80
2022/08/06 01:04:54;;;;;;;3.72;2.30;;;;;;;11.68;100.00;101720.56;688773;28;1368;-81
2022/08/06 01:05:15;;;;;;;5.00;2.50;;;;;;;11.66;100.00;101718.81;687830;28;1549;-79
2022/08/06 01:05:36;;;;;;;4.85;2.35;;;;;;;11.63;100.00;101722.31;690414;28;1550;-79
2022/08/06 01:05:56;;;;;;;5.28;2.45;;;;;;;11.61;100.00;101725.78;689552;28;1140;-80
2022/08/06 01:06:17;;;;;;;5.77;2.57;;;;;;;11.62;100.00;101722.31;691814;28;1839;-79
2022/08/06 01:06:38;;;;;;;5.40;2.70;;;;;;;11.62;100.00;101724.91;691178;28;1165;-80
2022/08/06 01:06:58;;;;;;;5.18;2.55;;;;;;;11.61;100.00;101724.03;690442;28;4329;-80
2022/08/06 01:07:19;;;;;;;5.50;2.60;;;;;;;11.63;100.00;101722.31;685654;28;1562;-79
2022/08/06 01:07:39;;;;;;;5.50;2.70;;;;;;;11.63;100.00;101721.41;685100;28;1147;-79
2022/08/06 01:07:59;;;;;;;5.87;2.60;;;;;;;11.63;100.00;101718.78;684791;28;1377;-80
2022/08/06 01:08:20;;;;;;;5.40;2.75;;;;;;;11.61;100.00;101712.69;685297;28;1124;-80
2022/08/06 01:08:40;;;;;;;3.93;2.50;;;;;;;11.61;100.00;101717.91;688648;28;1915;-79
2022/08/06 01:09:01;;;;;;;4.65;2.78;;;;;;;11.62;100.00;101714.44;689099;28;1567;-79
2022/08/06 01:09:21;;;;;;;5.23;2.80;;;;;;;11.68;100.00;101724.94;687619;28;1086;-79
2022/08/06 01:09:44;;;;;;;5.50;2.80;;;;;;;11.68;100.00;101722.34;687171;28;1325;-80
2022/08/06 01:10:05;;;;;;;4.85;2.60;;;;;;;11.59;100.00;101726.63;691959;28;4272;-80
2022/08/06 01:10:26;;;;;;;4.88;2.40;;;;;;;11.58;100.00;101730.09;693584;28;1324;-79
2022/08/06 01:10:47;;;;;;;4.23;2.30;;;;;;;11.56;100.00;101729.22;688597;28;1462;-80
2022/08/06 01:11:08;;;;;;;5.17;2.73;;;;;;;11.63;100.00;101729.25;691134;28;1735;-81
2022/08/06 01:11:31;;;;;;;6.72;2.78;;;;;;;11.60;100.00;101722.25;687597;28;1477;-80
2022/08/06 01:11:51;;;;;;;5.85;2.50;;;;;;;11.61;100.00;101725.78;689221;28;1164;-80
2022/08/06 01:12:11;;;;;;;5.22;2.60;;;;;;;11.58;100.00;101727.50;691670;28;1994;-80
2022/08/06 01:12:32;;;;;;;4.53;2.60;;;;;;;11.56;100.00;101726.63;692923;28;4073;-80
2022/08/06 01:12:52;;;;;;;4.28;2.47;;;;;;;11.63;100.00;101726.66;691222;28;1274;-80
2022/08/06 01:13:13;;;;;;;4.20;2.43;;;;;;;11.64;100.00;101720.56;691812;28;4356;-79
2022/08/06 01:13:33;;;;;;;4.50;2.42;;;;;;;11.69;100.00;101726.72;686180;28;1163;-80
2022/08/06 01:13:53;;;;;;;5.30;2.50;;;;;;;11.67;100.00;101720.56;688395;28;1859;-80
2022/08/06 01:14:14;;;;;;;3.80;2.30;;;;;;;11.62;100.00;101722.31;690815;28;1638;-80
2022/08/06 01:14:34;;;;;;;3.80;2.30;;;;;;;11.59;100.00;101724.00;688617;28;1170;-80
2022/08/06 01:14:55;;;;;;;3.73;2.40;;;;;;;11.58;100.00;101726.63;689705;28;1255;-80
2022/08/06 01:15:15;;;;;;;4.80;2.50;;;;;;;11.57;100.00;101723.13;686080;28;1270;-81
2022/08/06 01:15:39;;;;;;;5.40;2.63;;;;;;;11.57;100.00;101720.53;687578;28;1526;-81
2022/08/06 01:16:10;;;;;;;4.85;2.83;;;;;;;11.55;100.00;101724.84;689980;28;4306;-79
2022/08/06 01:16:42;;;;;;;5.78;2.72;;;;;;;11.54;100.00;101722.22;691112;28;1370;-80
2022/08/06 01:17:08;;;;;;;5.85;2.78;;;;;;;11.49;100.00;101716.97;691862;28;1217;-79
2022/08/06 01:17:36;;;;;;;4.00;2.22;;;;;;;11.46;100.00;101724.75;687261;28;1196;-80
2022/08/06 01:18:10;;;;;;;5.43;2.40;;;;;;;11.41;100.00;101723.88;691350;28;1270;-80
2022/08/06 01:18:39;;;;;;;4.37;2.50;;;;;;;11.41;100.00;101722.13;691853;28;1887;-81
2022/08/06 01:19:26;;;;;;;4.28;2.60;;;;;;;11.40;100.00;101720.34;688161;28;4276;-80
2022/08/06 01:20:05;;;;;;;5.43;2.40;;;;;;;11.44;100.00;101726.50;692694;28;1062;-80
2022/08/06 01:21:03;;;;;;;3.75;2.53;;;;;;;11.39;100.00;101725.59;691348;28;1362;-80
2022/08/06 01:21:56;;;;;;;4.85;2.65;;;;;;;11.47;100.00;101723.91;686113;28;1820;-80
2022/08/06 01:22:37;;;;;;;4.78;2.45;;;;;;;11.58;100.00;101724.88;683565;28;4924;-80
2022/08/06 01:23:36;;;;;;;5.13;2.60;;;;;;;11.57;100.00;101728.38;693653;28;1643;-80
2022/08/06 01:24:41;;;;;;;4.90;2.63;;;;;;;11.57;100.00;101727.47;694273;28;1424;-80
2022/08/06 01:25:33;;;;;;;4.30;2.40;;;;;;;11.59;100.00;101734.50;683119;28;4473;-80
2022/08/06 01:26:05;;;;;;;4.28;2.40;;;;;;;11.59;100.00;101728.38;684001;28;1255;-80
2022/08/06 01:26:49;;;;;;;6.60;2.50;;;;;;;11.59;100.00;101726.63;692946;28;2108;-80
2022/08/06 01:27:26;;;;;;;4.18;2.38;;;;;;;11.63;100.00;101731.88;693713;28;1201;-80
2022/08/06 01:27:59;;;;;;;4.70;2.33;;;;;;;11.62;100.00;101732.78;693979;28;1357;-80
2022/08/06 01:28:34;;;;;;;3.58;2.50;;;;;;;11.57;100.00;101733.63;690181;28;5141;-80
2022/08/06 01:29:16;;;;;;;4.20;2.20;;;;;;;11.52;100.00;101737.94;691149;28;845;-80
2022/08/06 01:29:41;;;;;;;5.00;2.45;;;;;;;11.50;100.00;101737.03;691478;28;1611;-80
2022/08/06 01:30:08;;;;;;;4.32;2.80;;;;;;;11.46;100.00;101734.38;690575;28;1328;-79
2022/08/06 01:30:34;;;;;;;4.93;2.22;;;;;;;11.40;100.00;101728.22;691129;28;1279;-80
2022/08/06 01:31:02;;;;;;;4.53;2.38;;;;;;;11.42;100.00;101722.97;689852;28;4364;-80
2022/08/06 01:31:36;;;;;;;3.83;2.30;;;;;;;11.43;100.00;101736.97;689647;28;1140;-80
2022/08/06 01:32:06;;;;;;;5.10;2.38;;;;;;;11.46;100.00;101735.25;693081;28;976;-80
2022/08/06 01:32:35;;;;;;;4.10;2.38;;;;;;;11.50;100.00;101730.91;693078;28;1035;-80
2022/08/06 01:33:05;;;;;;;4.28;2.58;;;;;;;11.50;100.00;101736.16;694934;28;1718;-80
2022/08/06 01:33:30;;;;;;;5.45;2.45;;;;;;;11.44;100.00;101736.97;688249;28;1339;-79
2022/08/06 01:33:54;;;;;;;4.97;2.33;;;;;;;11.50;100.00;101741.41;688462;28;1323;-80
2022/08/06 01:34:21;;;;;;;5.25;2.42;;;;;;;11.49;100.00;101730.06;679810;28;4267;-79
2022/08/06 01:34:50;;;;;;;4.95;2.33;;;;;;;11.47;100.00;101738.75;690549;28;1812;-80
2022/08/06 01:35:17;;;;;;;4.68;2.50;;;;;;;11.46;100.00;101734.38;687683;28;1377;-80
2022/08/06 01:35:41;;;;;;;4.80;2.60;;;;;;;11.52;100.00;101745.78;687591;28;1698;-80
2022/08/06 01:36:06;;;;;;;4.63;2.58;;;;;;;11.52;100.00;101735.31;685466;28;1895;-80
2022/08/06 01:36:31;;;;;;;4.60;2.20;;;;;;;11.51;100.00;101733.53;688985;28;1722;-80
2022/08/06 01:37:02;;;;;;;5.13;2.40;;;;;;;11.51;100.00;101736.16;689650;28;1186;-80
2022/08/06 01:37:59;;;;;;;4.43;2.20;;;;;;;11.66;100.00;101737.13;688576;28;4924;-80
2022/08/06 01:38:25;;;;;;;4.28;2.50;;;;;;;11.67;100.00;101738.91;683292;28;1211;-80
2022/08/06 01:38:48;;;;;;;5.07;2.55;;;;;;;11.58;100.00;101735.34;680384;29;5214;-80
2022/08/06 01:39:11;;;;;;;4.80;2.55;;;;;;;11.56;100.00;101744.03;673972;29;1219;-80
2022/08/06 01:39:35;;;;;;;4.90;2.50;;;;;;;11.49;100.00;101735.28;673828;29;1120;-80
2022/08/06 01:40:04;;;;;;;4.53;2.40;;;;;;;11.45;100.00;101738.75;675935;29;4376;-80
2022/08/06 01:40:29;;;;;;;5.60;2.40;;;;;;;11.39;100.00;101746.53;685844;28;1394;-79
2022/08/06 01:40:52;;;;;;;3.83;2.30;;;;;;;11.37;100.00;101740.41;686088;28;1539;-79
2022/08/06 01:41:38;;;;;;;4.63;2.28;;;;;;;11.34;100.00;101746.50;688246;28;1360;-80
2022/08/06 01:42:00;;;;;;;5.13;2.58;;;;;;;11.39;100.00;101733.44;689493;28;1526;-79
2022/08/06 01:42:21;;;;;;;5.35;2.70;;;;;;;11.39;100.00;101736.94;691725;28;1581;-79
2022/08/06 01:42:44;;;;;;;5.20;2.53;;;;;;;11.36;100.00;101749.13;689361;28;1179;-80
2022/08/06 01:43:09;;;;;;;4.00;2.42;;;;;;;11.35;100.00;101732.56;690848;28;4360;-80
2022/08/06 01:43:32;;;;;;;4.55;2.40;;;;;;;11.38;100.00;101750.00;694842;28;1579;-80
2022/08/06 01:43:53;;;;;;;4.40;2.60;;;;;;;11.46;100.00;101745.72;690615;28;1449;-81
2022/08/06 01:44:17;;;;;;;4.00;2.22;;;;;;;11.49;100.00;101740.53;693784;28;1227;-80
2022/08/06 01:44:40;;;;;;;4.07;2.28;;;;;;;11.52;100.00;101744.88;690151;28;1636;-80
2022/08/06 01:45:02;;;;;;;4.95;2.30;;;;;;;11.50;100.00;101737.03;689124;28;1287;-80
2022/08/06 01:45:28;;;;;;;4.55;2.35;;;;;;;11.41;100.00;101745.69;684797;28;1102;-80
2022/08/06 01:45:51;;;;;;;4.90;2.60;;;;;;;11.27;100.00;101742.06;682427;29;1425;-79
2022/08/06 01:46:14;;;;;;;4.68;2.53;;;;;;;11.30;100.00;101741.19;681521;28;4303;-80
2022/08/06 01:46:37;;;;;;;4.05;2.47;;;;;;;11.36;100.00;101741.28;686310;28;1517;-80
2022/08/06 01:47:01;;;;;;;4.65;2.50;;;;;;;11.29;100.00;101745.56;688210;28;1575;-79
2022/08/06 01:47:26;;;;;;;4.72;2.60;;;;;;;11.25;100.00;101744.66;687751;28;1290;-80
2022/08/06 01:47:50;;;;;;;5.25;2.58;;;;;;;11.29;100.00;101739.47;693033;28;1488;-80
2022/08/06 01:48:16;;;;;;;5.35;2.35;;;;;;;11.35;100.00;101742.13;693317;28;977;-80
2022/08/06 01:48:39;;;;;;;5.80;2.40;;;;;;;11.35;100.00;101752.59;693327;28;1973;-80
2022/08/06 01:49:02;;;;;;;3.60;2.30;;;;;;;11.35;100.00;101743.03;680759;28;4287;-80
2022/08/06 01:49:28;;;;;;;3.70;2.28;;;;;;;11.34;100.00;101751.72;688353;28;2271;-80
2022/08/06 01:49:52;;;;;;;4.72;2.60;;;;;;;11.25;100.00;101742.03;687771;28;1348;-80
2022/08/06 01:50:17;;;;;;;3.72;2.50;;;;;;;11.20;100.00;101743.75;686219;28;1325;-80